sensor_id;sensor_type;location;lat;lon;timestamp;pressure;altitude;pressure_sealevel;temperature
69590;BMP180;56792;50.644;17.984;2023-07-09T00:02:00;100118.40;;;16.30
69590;BMP180;56792;50.644;17.984;2023-07-09T00:04:29;100114.80;;;16.28
69590;BMP180;56792;50.644;17.984;2023-07-09T00:07:01;100115.20;;;16.20
69590;BMP180;56792;50.644;17.984;2023-07-09T00:09:30;100116.40;;;16.20
69590;BMP180;56792;50.644;17.984;2023-07-09T00:11:59;100115.40;;;16.20
69590;BMP180;56792;50.644;17.984;2023-07-09T00:14:27;100116.40;;;16.20
69590;BMP180;56792;50.644;17.984;2023-07-09T00:16:55;100116.60;;;16.20
69590;BMP180;56792;50.644;17.984;2023-07-09T00:19:24;100111.40;;;16.20
69590;BMP180;56792;50.644;17.984;2023-07-09T00:21:52;100112.20;;;16.20
69590;BMP180;56792;50.644;17.984;2023-07-09T00:24:21;100111.20;;;16.10
69590;BMP180;56792;50.644;17.984;2023-07-09T00:26:49;100109.40;;;16.10
69590;BMP180;56792;50.644;17.984;2023-07-09T00:29:18;100110.40;;;16.10
69590;BMP180;56792;50.644;17.984;2023-07-09T00:31:46;100106.60;;;16.10
69590;BMP180;56792;50.644;17.984;2023-07-09T00:34:16;100107.40;;;16.10
69590;BMP180;56792;50.644;17.984;2023-07-09T00:36:45;100105.20;;;16.02
69590;BMP180;56792;50.644;17.984;2023-07-09T00:39:17;100107.00;;;16.00
69590;BMP180;56792;50.644;17.984;2023-07-09T00:41:46;100108.00;;;16.00
69590;BMP180;56792;50.644;17.984;2023-07-09T00:44:30;100106.20;;;15.94
69590;BMP180;56792;50.644;17.984;2023-07-09T00:47:20;100103.00;;;15.90
69590;BMP180;56792;50.644;17.984;2023-07-09T00:49:49;100104.80;;;15.90
69590;BMP180;56792;50.644;17.984;2023-07-09T00:52:27;100099.20;;;15.80
69590;BMP180;56792;50.644;17.984;2023-07-09T00:55:04;100098.60;;;15.80
69590;BMP180;56792;50.644;17.984;2023-07-09T00:57:34;100097.00;;;15.72
69590;BMP180;56792;50.644;17.984;2023-07-09T01:00:11;100095.20;;;15.70
69590;BMP180;56792;50.644;17.984;2023-07-09T01:02:47;100099.00;;;15.70
69590;BMP180;56792;50.644;17.984;2023-07-09T01:05:18;100101.60;;;15.66
69590;BMP180;56792;50.644;17.984;2023-07-09T01:07:48;100100.00;;;15.70
69590;BMP180;56792;50.644;17.984;2023-07-09T01:10:17;100094.60;;;15.70
69590;BMP180;56792;50.644;17.984;2023-07-09T01:12:49;100098.40;;;15.70
69590;BMP180;56792;50.644;17.984;2023-07-09T01:15:18;100098.20;;;15.66
69590;BMP180;56792;50.644;17.984;2023-07-09T01:17:47;100101.00;;;15.60
69590;BMP180;56792;50.644;17.984;2023-07-09T01:20:20;100099.20;;;15.60
69590;BMP180;56792;50.644;17.984;2023-07-09T01:22:51;100100.40;;;15.60
69590;BMP180;56792;50.644;17.984;2023-07-09T01:25:22;100098.00;;;15.50
69590;BMP180;56792;50.644;17.984;2023-07-09T01:27:51;100099.40;;;15.50
69590;BMP180;56792;50.644;17.984;2023-07-09T01:30:24;100101.60;;;15.50
69590;BMP180;56792;50.644;17.984;2023-07-09T01:32:57;100103.20;;;15.50
69590;BMP180;56792;50.644;17.984;2023-07-09T01:35:27;100105.60;;;15.50
69590;BMP180;56792;50.644;17.984;2023-07-09T01:37:56;100106.60;;;15.42
69590;BMP180;56792;50.644;17.984;2023-07-09T01:40:27;100110.20;;;15.40
69590;BMP180;56792;50.644;17.984;2023-07-09T01:42:57;100110.80;;;15.40
69590;BMP180;56792;50.644;17.984;2023-07-09T01:45:26;100114.00;;;15.30
69590;BMP180;56792;50.644;17.984;2023-07-09T01:47:56;100121.00;;;15.30
69590;BMP180;56792;50.644;17.984;2023-07-09T01:50:25;100123.80;;;15.20
69590;BMP180;56792;50.644;17.984;2023-07-09T01:52:55;100123.00;;;15.18
69590;BMP180;56792;50.644;17.984;2023-07-09T01:55:24;100126.00;;;15.10
69590;BMP180;56792;50.644;17.984;2023-07-09T01:57:52;100127.20;;;15.04
69590;BMP180;56792;50.644;17.984;2023-07-09T02:00:22;100130.00;;;15.00
69590;BMP180;56792;50.644;17.984;2023-07-09T02:02:50;100137.00;;;14.96
69590;BMP180;56792;50.644;17.984;2023-07-09T02:05:20;100130.80;;;14.90
69590;BMP180;56792;50.644;17.984;2023-07-09T02:07:49;100132.00;;;14.90
69590;BMP180;56792;50.644;17.984;2023-07-09T02:10:18;100132.00;;;14.84
69590;BMP180;56792;50.644;17.984;2023-07-09T02:12:47;100131.00;;;14.80
69590;BMP180;56792;50.644;17.984;2023-07-09T02:15:17;100131.40;;;14.78
69590;BMP180;56792;50.644;17.984;2023-07-09T02:17:45;100133.60;;;14.70
69590;BMP180;56792;50.644;17.984;2023-07-09T02:20:14;100127.80;;;14.70
69590;BMP180;56792;50.644;17.984;2023-07-09T02:22:43;100130.40;;;14.60
69590;BMP180;56792;50.644;17.984;2023-07-09T02:25:11;100132.60;;;14.60
69590;BMP180;56792;50.644;17.984;2023-07-09T02:27:40;100134.80;;;14.60
69590;BMP180;56792;50.644;17.984;2023-07-09T02:30:10;100138.00;;;14.50
69590;BMP180;56792;50.644;17.984;2023-07-09T02:32:39;100135.40;;;14.50
69590;BMP180;56792;50.644;17.984;2023-07-09T02:35:09;100136.80;;;14.50
69590;BMP180;56792;50.644;17.984;2023-07-09T02:37:38;100142.40;;;14.48
69590;BMP180;56792;50.644;17.984;2023-07-09T02:40:09;100145.40;;;14.40
69590;BMP180;56792;50.644;17.984;2023-07-09T02:42:37;100141.20;;;14.36
69590;BMP180;56792;50.644;17.984;2023-07-09T02:45:08;100143.60;;;14.30
69590;BMP180;56792;50.644;17.984;2023-07-09T02:47:38;100148.20;;;14.30
69590;BMP180;56792;50.644;17.984;2023-07-09T02:50:09;100151.40;;;14.24
69590;BMP180;56792;50.644;17.984;2023-07-09T02:52:39;100146.60;;;14.20
69590;BMP180;56792;50.644;17.984;2023-07-09T02:55:09;100145.60;;;14.20
69590;BMP180;56792;50.644;17.984;2023-07-09T02:57:37;100143.00;;;14.20
69590;BMP180;56792;50.644;17.984;2023-07-09T03:00:08;100138.60;;;14.20
69590;BMP180;56792;50.644;17.984;2023-07-09T03:02:37;100134.80;;;14.10
69590;BMP180;56792;50.644;17.984;2023-07-09T03:05:06;100134.20;;;14.10
69590;BMP180;56792;50.644;17.984;2023-07-09T03:07:37;100137.20;;;14.10
69590;BMP180;56792;50.644;17.984;2023-07-09T03:10:07;100135.80;;;14.10
69590;BMP180;56792;50.644;17.984;2023-07-09T03:12:36;100137.80;;;14.00
69590;BMP180;56792;50.644;17.984;2023-07-09T03:15:06;100135.00;;;13.94
69590;BMP180;56792;50.644;17.984;2023-07-09T03:17:34;100130.80;;;13.96
69590;BMP180;56792;50.644;17.984;2023-07-09T03:20:03;100133.80;;;13.90
69590;BMP180;56792;50.644;17.984;2023-07-09T03:22:32;100136.00;;;13.90
69590;BMP180;56792;50.644;17.984;2023-07-09T03:25:00;100139.20;;;13.90
69590;BMP180;56792;50.644;17.984;2023-07-09T03:27:28;100131.60;;;13.90
69590;BMP180;56792;50.644;17.984;2023-07-09T03:29:57;100132.60;;;13.90
69590;BMP180;56792;50.644;17.984;2023-07-09T03:32:25;100136.60;;;13.90
69590;BMP180;56792;50.644;17.984;2023-07-09T03:34:53;100142.00;;;13.90
69590;BMP180;56792;50.644;17.984;2023-07-09T03:37:22;100141.40;;;13.90
69590;BMP180;56792;50.644;17.984;2023-07-09T03:39:50;100139.60;;;13.94
69590;BMP180;56792;50.644;17.984;2023-07-09T03:42:18;100140.40;;;14.00
69590;BMP180;56792;50.644;17.984;2023-07-09T03:44:46;100136.60;;;14.00
69590;BMP180;56792;50.644;17.984;2023-07-09T03:47:15;100138.40;;;14.00
69590;BMP180;56792;50.644;17.984;2023-07-09T03:49:44;100135.80;;;14.10
69590;BMP180;56792;50.644;17.984;2023-07-09T03:52:12;100136.00;;;14.10
69590;BMP180;56792;50.644;17.984;2023-07-09T03:54:40;100136.80;;;14.10
69590;BMP180;56792;50.644;17.984;2023-07-09T03:57:08;100138.00;;;14.10
69590;BMP180;56792;50.644;17.984;2023-07-09T03:59:37;100133.60;;;14.12
69590;BMP180;56792;50.644;17.984;2023-07-09T04:02:07;100135.60;;;14.20
69590;BMP180;56792;50.644;17.984;2023-07-09T04:04:36;100141.40;;;14.20
69590;BMP180;56792;50.644;17.984;2023-07-09T04:07:04;100147.20;;;14.28
69590;BMP180;56792;50.644;17.984;2023-07-09T04:09:33;100148.20;;;14.30
69590;BMP180;56792;50.644;17.984;2023-07-09T04:12:01;100152.80;;;14.30
69590;BMP180;56792;50.644;17.984;2023-07-09T04:14:30;100147.00;;;14.30
69590;BMP180;56792;50.644;17.984;2023-07-09T04:16:58;100153.00;;;14.40
69590;BMP180;56792;50.644;17.984;2023-07-09T04:19:27;100162.60;;;14.40
69590;BMP180;56792;50.644;17.984;2023-07-09T04:21:56;100161.20;;;14.50
69590;BMP180;56792;50.644;17.984;2023-07-09T04:24:24;100162.60;;;14.50
69590;BMP180;56792;50.644;17.984;2023-07-09T04:26:52;100164.20;;;14.60
69590;BMP180;56792;50.644;17.984;2023-07-09T04:29:24;100167.60;;;14.60
69590;BMP180;56792;50.644;17.984;2023-07-09T04:31:52;100162.00;;;14.68
69590;BMP180;56792;50.644;17.984;2023-07-09T04:34:20;100162.00;;;14.70
69590;BMP180;56792;50.644;17.984;2023-07-09T04:36:48;100166.80;;;14.80
69590;BMP180;56792;50.644;17.984;2023-07-09T04:39:17;100163.80;;;14.82
69590;BMP180;56792;50.644;17.984;2023-07-09T04:41:45;100173.00;;;14.90
69590;BMP180;56792;50.644;17.984;2023-07-09T04:44:13;100177.00;;;15.00
69590;BMP180;56792;50.644;17.984;2023-07-09T04:46:41;100177.60;;;15.00
69590;BMP180;56792;50.644;17.984;2023-07-09T04:49:09;100176.00;;;15.10
69590;BMP180;56792;50.644;17.984;2023-07-09T04:51:39;100173.00;;;15.20
69590;BMP180;56792;50.644;17.984;2023-07-09T04:54:07;100176.00;;;15.30
69590;BMP180;56792;50.644;17.984;2023-07-09T04:56:35;100175.40;;;15.40
69590;BMP180;56792;50.644;17.984;2023-07-09T04:59:05;100181.20;;;15.50
69590;BMP180;56792;50.644;17.984;2023-07-09T05:01:33;100179.40;;;15.60
69590;BMP180;56792;50.644;17.984;2023-07-09T05:04:01;100179.80;;;15.70
69590;BMP180;56792;50.644;17.984;2023-07-09T05:06:29;100181.60;;;15.80
69590;BMP180;56792;50.644;17.984;2023-07-09T05:08:58;100190.20;;;15.90
69590;BMP180;56792;50.644;17.984;2023-07-09T05:11:26;100191.80;;;16.00
69590;BMP180;56792;50.644;17.984;2023-07-09T05:13:54;100186.00;;;16.10
69590;BMP180;56792;50.644;17.984;2023-07-09T05:16:22;100182.40;;;16.20
69590;BMP180;56792;50.644;17.984;2023-07-09T05:18:51;100179.40;;;16.30
69590;BMP180;56792;50.644;17.984;2023-07-09T05:21:19;100178.40;;;16.40
69590;BMP180;56792;50.644;17.984;2023-07-09T05:23:47;100183.00;;;16.50
69590;BMP180;56792;50.644;17.984;2023-07-09T05:26:16;100184.20;;;16.60
69590;BMP180;56792;50.644;17.984;2023-07-09T05:28:44;100184.80;;;16.70
69590;BMP180;56792;50.644;17.984;2023-07-09T05:31:12;100184.60;;;16.80
69590;BMP180;56792;50.644;17.984;2023-07-09T05:33:40;100185.20;;;16.90
69590;BMP180;56792;50.644;17.984;2023-07-09T05:36:09;100187.60;;;17.04
69590;BMP180;56792;50.644;17.984;2023-07-09T05:38:43;100181.40;;;17.16
69590;BMP180;56792;50.644;17.984;2023-07-09T05:41:11;100180.60;;;17.30
69590;BMP180;56792;50.644;17.984;2023-07-09T05:43:39;100182.00;;;17.40
69590;BMP180;56792;50.644;17.984;2023-07-09T05:46:08;100186.20;;;17.58
69590;BMP180;56792;50.644;17.984;2023-07-09T05:48:36;100190.60;;;17.70
69590;BMP180;56792;50.644;17.984;2023-07-09T05:51:04;100192.40;;;17.80
69590;BMP180;56792;50.644;17.984;2023-07-09T05:53:33;100195.40;;;17.92
69590;BMP180;56792;50.644;17.984;2023-07-09T05:56:01;100193.00;;;18.00
69590;BMP180;56792;50.644;17.984;2023-07-09T05:58:29;100187.80;;;18.18
69590;BMP180;56792;50.644;17.984;2023-07-09T06:00:58;100192.60;;;18.30
69590;BMP180;56792;50.644;17.984;2023-07-09T06:03:28;100184.60;;;18.40
69590;BMP180;56792;50.644;17.984;2023-07-09T06:05:57;100195.60;;;18.56
69590;BMP180;56792;50.644;17.984;2023-07-09T06:08:27;100185.40;;;18.70
69590;BMP180;56792;50.644;17.984;2023-07-09T06:10:58;100185.40;;;18.80
69590;BMP180;56792;50.644;17.984;2023-07-09T06:13:28;100186.20;;;18.90
69590;BMP180;56792;50.644;17.984;2023-07-09T06:15:59;100184.80;;;19.10
69590;BMP180;56792;50.644;17.984;2023-07-09T06:18:28;100180.60;;;19.20
69590;BMP180;56792;50.644;17.984;2023-07-09T06:21:00;100187.80;;;19.40
69590;BMP180;56792;50.644;17.984;2023-07-09T06:23:28;100185.00;;;19.50
69590;BMP180;56792;50.644;17.984;2023-07-09T06:25:58;100183.40;;;19.70
69590;BMP180;56792;50.644;17.984;2023-07-09T06:28:28;100183.00;;;19.86
69590;BMP180;56792;50.644;17.984;2023-07-09T06:30:57;100180.40;;;20.00
69590;BMP180;56792;50.644;17.984;2023-07-09T06:33:27;100182.60;;;20.16
69590;BMP180;56792;50.644;17.984;2023-07-09T06:35:58;100186.80;;;20.30
69590;BMP180;56792;50.644;17.984;2023-07-09T06:38:28;100185.00;;;20.50
69590;BMP180;56792;50.644;17.984;2023-07-09T06:40:57;100188.80;;;20.60
69590;BMP180;56792;50.644;17.984;2023-07-09T06:43:25;100190.00;;;20.72
69590;BMP180;56792;50.644;17.984;2023-07-09T06:45:57;100187.60;;;20.90
69590;BMP180;56792;50.644;17.984;2023-07-09T06:48:28;100187.80;;;21.04
69590;BMP180;56792;50.644;17.984;2023-07-09T06:50:58;100189.00;;;21.24
69590;BMP180;56792;50.644;17.984;2023-07-09T06:53:28;100187.60;;;21.42
69590;BMP180;56792;50.644;17.984;2023-07-09T06:55:58;100190.60;;;21.70
69590;BMP180;56792;50.644;17.984;2023-07-09T06:58:29;100197.40;;;21.90
69590;BMP180;56792;50.644;17.984;2023-07-09T07:01:01;100194.40;;;22.10
69590;BMP180;56792;50.644;17.984;2023-07-09T07:03:31;100192.60;;;22.30
69590;BMP180;56792;50.644;17.984;2023-07-09T07:06:00;100189.60;;;22.40
69590;BMP180;56792;50.644;17.984;2023-07-09T07:08:28;100190.00;;;22.70
69590;BMP180;56792;50.644;17.984;2023-07-09T07:10:59;100192.40;;;22.92
69590;BMP180;56792;50.644;17.984;2023-07-09T07:13:30;100195.40;;;23.14
69590;BMP180;56792;50.644;17.984;2023-07-09T07:15:59;100191.80;;;23.40
69590;BMP180;56792;50.644;17.984;2023-07-09T07:18:27;100188.00;;;23.66
69590;BMP180;56792;50.644;17.984;2023-07-09T07:20:55;100197.60;;;23.80
69590;BMP180;56792;50.644;17.984;2023-07-09T07:23:24;100190.80;;;24.00
69590;BMP180;56792;50.644;17.984;2023-07-09T07:25:52;100191.00;;;24.20
69590;BMP180;56792;50.644;17.984;2023-07-09T07:28:21;100186.00;;;24.40
69590;BMP180;56792;50.644;17.984;2023-07-09T07:30:59;100188.20;;;24.60
69590;BMP180;56792;50.644;17.984;2023-07-09T07:33:28;100184.20;;;24.78
69590;BMP180;56792;50.644;17.984;2023-07-09T07:35:56;100184.20;;;25.00
69590;BMP180;56792;50.644;17.984;2023-07-09T07:38:24;100188.40;;;25.20
69590;BMP180;56792;50.644;17.984;2023-07-09T07:40:53;100188.40;;;25.40
69590;BMP180;56792;50.644;17.984;2023-07-09T07:43:21;100189.20;;;25.54
69590;BMP180;56792;50.644;17.984;2023-07-09T07:45:50;100185.80;;;25.70
69590;BMP180;56792;50.644;17.984;2023-07-09T07:48:18;100186.80;;;25.86
69590;BMP180;56792;50.644;17.984;2023-07-09T07:50:47;100187.60;;;25.90
69590;BMP180;56792;50.644;17.984;2023-07-09T07:53:16;100186.40;;;26.10
69590;BMP180;56792;50.644;17.984;2023-07-09T07:55:44;100189.20;;;26.20
69590;BMP180;56792;50.644;17.984;2023-07-09T07:58:14;100190.80;;;26.36
69590;BMP180;56792;50.644;17.984;2023-07-09T08:00:42;100189.80;;;26.50
69590;BMP180;56792;50.644;17.984;2023-07-09T08:03:10;100188.20;;;26.70
69590;BMP180;56792;50.644;17.984;2023-07-09T08:05:38;100189.00;;;26.80
69590;BMP180;56792;50.644;17.984;2023-07-09T08:08:07;100185.60;;;27.00
69590;BMP180;56792;50.644;17.984;2023-07-09T08:10:35;100181.00;;;27.10
69590;BMP180;56792;50.644;17.984;2023-07-09T08:13:03;100181.80;;;27.20
69590;BMP180;56792;50.644;17.984;2023-07-09T08:15:31;100187.00;;;27.40
69590;BMP180;56792;50.644;17.984;2023-07-09T08:18:00;100188.60;;;27.50
69590;BMP180;56792;50.644;17.984;2023-07-09T08:20:28;100182.80;;;27.60
69590;BMP180;56792;50.644;17.984;2023-07-09T08:22:56;100187.00;;;27.74
69590;BMP180;56792;50.644;17.984;2023-07-09T08:25:24;100186.80;;;27.86
69590;BMP180;56792;50.644;17.984;2023-07-09T08:27:52;100186.60;;;28.00
69590;BMP180;56792;50.644;17.984;2023-07-09T08:30:21;100187.80;;;28.10
69590;BMP180;56792;50.644;17.984;2023-07-09T08:32:49;100185.20;;;28.20
69590;BMP180;56792;50.644;17.984;2023-07-09T08:35:17;100180.20;;;28.40
69590;BMP180;56792;50.644;17.984;2023-07-09T08:37:45;100178.80;;;28.56
69590;BMP180;56792;50.644;17.984;2023-07-09T08:40:16;100179.00;;;28.68
69590;BMP180;56792;50.644;17.984;2023-07-09T08:42:49;100170.40;;;28.80
69590;BMP180;56792;50.644;17.984;2023-07-09T08:45:32;100173.00;;;29.00
69590;BMP180;56792;50.644;17.984;2023-07-09T08:48:10;100176.60;;;29.10
69590;BMP180;56792;50.644;17.984;2023-07-09T08:50:48;100177.80;;;29.30
69590;BMP180;56792;50.644;17.984;2023-07-09T08:53:24;100179.00;;;29.50
69590;BMP180;56792;50.644;17.984;2023-07-09T08:55:55;100178.40;;;29.70
69590;BMP180;56792;50.644;17.984;2023-07-09T08:58:27;100173.60;;;29.80
69590;BMP180;56792;50.644;17.984;2023-07-09T09:00:59;100173.60;;;30.00
69590;BMP180;56792;50.644;17.984;2023-07-09T09:03:35;100173.80;;;30.20
69590;BMP180;56792;50.644;17.984;2023-07-09T09:06:13;100177.40;;;30.30
69590;BMP180;56792;50.644;17.984;2023-07-09T09:08:50;100180.80;;;30.50
69590;BMP180;56792;50.644;17.984;2023-07-09T09:11:29;100176.40;;;30.70
69590;BMP180;56792;50.644;17.984;2023-07-09T09:14:05;100177.80;;;30.82
69590;BMP180;56792;50.644;17.984;2023-07-09T09:16:39;100179.20;;;31.00
69590;BMP180;56792;50.644;17.984;2023-07-09T09:19:22;100172.40;;;31.10
69590;BMP180;56792;50.644;17.984;2023-07-09T09:21:58;100176.20;;;31.30
69590;BMP180;56792;50.644;17.984;2023-07-09T09:24:36;100176.80;;;31.40
69590;BMP180;56792;50.644;17.984;2023-07-09T09:27:07;100177.40;;;31.60
69590;BMP180;56792;50.644;17.984;2023-07-09T09:29:36;100185.20;;;31.76
69590;BMP180;56792;50.644;17.984;2023-07-09T09:32:23;100183.00;;;31.90
69590;BMP180;56792;50.644;17.984;2023-07-09T09:34:52;100189.60;;;32.00
69590;BMP180;56792;50.644;17.984;2023-07-09T09:37:30;100189.40;;;32.10
69590;BMP180;56792;50.644;17.984;2023-07-09T09:40:01;100190.20;;;32.26
69590;BMP180;56792;50.644;17.984;2023-07-09T09:42:31;100192.80;;;32.40
69590;BMP180;56792;50.644;17.984;2023-07-09T09:45:01;100196.60;;;32.60
69590;BMP180;56792;50.644;17.984;2023-07-09T09:47:30;100193.20;;;32.70
69590;BMP180;56792;50.644;17.984;2023-07-09T09:49:58;100198.20;;;32.80
69590;BMP180;56792;50.644;17.984;2023-07-09T09:52:31;100199.60;;;32.90
69590;BMP180;56792;50.644;17.984;2023-07-09T09:55:18;100203.20;;;33.10
69590;BMP180;56792;50.644;17.984;2023-07-09T09:57:52;100198.40;;;33.20
69590;BMP180;56792;50.644;17.984;2023-07-09T10:00:24;100196.20;;;33.40
69590;BMP180;56792;50.644;17.984;2023-07-09T10:02:58;100202.00;;;33.50
69590;BMP180;56792;50.644;17.984;2023-07-09T10:05:34;100201.20;;;33.50
69590;BMP180;56792;50.644;17.984;2023-07-09T10:08:13;100199.00;;;33.64
69590;BMP180;56792;50.644;17.984;2023-07-09T10:10:46;100202.60;;;33.80
69590;BMP180;56792;50.644;17.984;2023-07-09T10:13:23;100200.40;;;33.90
69590;BMP180;56792;50.644;17.984;2023-07-09T10:16:05;100197.60;;;33.90
69590;BMP180;56792;50.644;17.984;2023-07-09T10:18:46;100187.80;;;33.80
69590;BMP180;56792;50.644;17.984;2023-07-09T10:21:20;100191.60;;;33.80
69590;BMP180;56792;50.644;17.984;2023-07-09T10:24:03;100189.60;;;34.00
69590;BMP180;56792;50.644;17.984;2023-07-09T10:26:44;100190.20;;;34.20
69590;BMP180;56792;50.644;17.984;2023-07-09T10:29:46;100185.80;;;34.20
69590;BMP180;56792;50.644;17.984;2023-07-09T10:32:32;100186.20;;;34.30
69590;BMP180;56792;50.644;17.984;2023-07-09T10:35:15;100190.60;;;34.40
69590;BMP180;56792;50.644;17.984;2023-07-09T10:38:00;100193.60;;;34.60
69590;BMP180;56792;50.644;17.984;2023-07-09T10:40:38;100189.00;;;34.70
69590;BMP180;56792;50.644;17.984;2023-07-09T10:43:16;100183.40;;;34.70
69590;BMP180;56792;50.644;17.984;2023-07-09T10:45:53;100184.20;;;34.80
69590;BMP180;56792;50.644;17.984;2023-07-09T10:48:33;100191.40;;;35.00
69590;BMP180;56792;50.644;17.984;2023-07-09T10:51:10;100187.80;;;35.00
69590;BMP180;56792;50.644;17.984;2023-07-09T10:53:46;100179.80;;;35.00
69590;BMP180;56792;50.644;17.984;2023-07-09T10:56:21;100185.00;;;35.10
69590;BMP180;56792;50.644;17.984;2023-07-09T10:59:02;100179.60;;;35.20
69590;BMP180;56792;50.644;17.984;2023-07-09T11:01:39;100179.40;;;35.30
69590;BMP180;56792;50.644;17.984;2023-07-09T11:04:28;100178.40;;;35.50
69590;BMP180;56792;50.644;17.984;2023-07-09T11:07:02;100184.40;;;35.60
69590;BMP180;56792;50.644;17.984;2023-07-09T11:09:34;100176.80;;;35.70
69590;BMP180;56792;50.644;17.984;2023-07-09T11:12:10;100177.60;;;35.86
69590;BMP180;56792;50.644;17.984;2023-07-09T11:14:45;100178.60;;;36.00
69590;BMP180;56792;50.644;17.984;2023-07-09T11:17:19;100176.60;;;35.90
69590;BMP180;56792;50.644;17.984;2023-07-09T11:19:54;100172.20;;;36.00
69590;BMP180;56792;50.644;17.984;2023-07-09T11:22:27;100178.00;;;36.00
69590;BMP180;56792;50.644;17.984;2023-07-09T11:25:11;100174.80;;;36.10
69590;BMP180;56792;50.644;17.984;2023-07-09T11:27:52;100183.40;;;36.20
69590;BMP180;56792;50.644;17.984;2023-07-09T11:30:26;100181.60;;;36.28
69590;BMP180;56792;50.644;17.984;2023-07-09T11:32:58;100186.00;;;36.30
69590;BMP180;56792;50.644;17.984;2023-07-09T11:35:29;100184.00;;;36.40
69590;BMP180;56792;50.644;17.984;2023-07-09T11:38:12;100174.80;;;36.30
69590;BMP180;56792;50.644;17.984;2023-07-09T11:40:49;100168.40;;;36.30
69590;BMP180;56792;50.644;17.984;2023-07-09T11:43:32;100169.80;;;36.36
69590;BMP180;56792;50.644;17.984;2023-07-09T11:46:13;100179.00;;;36.50
69590;BMP180;56792;50.644;17.984;2023-07-09T11:48:42;100183.20;;;36.60
69590;BMP180;56792;50.644;17.984;2023-07-09T11:51:17;100174.00;;;36.60
69590;BMP180;56792;50.644;17.984;2023-07-09T11:53:52;100162.40;;;36.60
69590;BMP180;56792;50.644;17.984;2023-07-09T11:56:23;100163.00;;;36.60
69590;BMP180;56792;50.644;17.984;2023-07-09T11:58:53;100165.20;;;36.50
69590;BMP180;56792;50.644;17.984;2023-07-09T12:01:27;100162.20;;;36.30
69590;BMP180;56792;50.644;17.984;2023-07-09T12:03:58;100165.20;;;36.30
69590;BMP180;56792;50.644;17.984;2023-07-09T12:06:31;100159.00;;;36.32
69590;BMP180;56792;50.644;17.984;2023-07-09T12:09:00;100159.80;;;36.34
69590;BMP180;56792;50.644;17.984;2023-07-09T12:11:35;100163.80;;;36.40
69590;BMP180;56792;50.644;17.984;2023-07-09T12:14:05;100155.20;;;36.48
69590;BMP180;56792;50.644;17.984;2023-07-09T12:16:39;100163.00;;;36.40
69590;BMP180;56792;50.644;17.984;2023-07-09T12:19:10;100153.40;;;36.56
69590;BMP180;56792;50.644;17.984;2023-07-09T12:21:42;100158.40;;;36.60
69590;BMP180;56792;50.644;17.984;2023-07-09T12:24:22;100154.60;;;35.96
69590;BMP180;56792;50.644;17.984;2023-07-09T12:26:54;100150.20;;;35.76
69590;BMP180;56792;50.644;17.984;2023-07-09T12:29:26;100153.60;;;36.00
69590;BMP180;56792;50.644;17.984;2023-07-09T12:31:56;100150.60;;;36.10
69590;BMP180;56792;50.644;17.984;2023-07-09T12:34:26;100148.80;;;36.00
69590;BMP180;56792;50.644;17.984;2023-07-09T12:36:55;100144.60;;;36.10
69590;BMP180;56792;50.644;17.984;2023-07-09T12:39:28;100144.40;;;36.18
69590;BMP180;56792;50.644;17.984;2023-07-09T12:42:02;100143.80;;;36.20
69590;BMP180;56792;50.644;17.984;2023-07-09T12:44:35;100151.80;;;36.28
69590;BMP180;56792;50.644;17.984;2023-07-09T12:47:05;100145.40;;;36.40
69590;BMP180;56792;50.644;17.984;2023-07-09T12:49:44;100145.40;;;36.50
69590;BMP180;56792;50.644;17.984;2023-07-09T12:52:19;100139.60;;;36.60
69590;BMP180;56792;50.644;17.984;2023-07-09T12:54:58;100133.00;;;36.60
69590;BMP180;56792;50.644;17.984;2023-07-09T12:57:27;100122.20;;;36.60
69590;BMP180;56792;50.644;17.984;2023-07-09T12:59:56;100127.80;;;36.68
69590;BMP180;56792;50.644;17.984;2023-07-09T13:02:27;100129.20;;;36.60
69590;BMP180;56792;50.644;17.984;2023-07-09T13:05:03;100129.00;;;36.60
69590;BMP180;56792;50.644;17.984;2023-07-09T13:07:37;100121.80;;;36.60
69590;BMP180;56792;50.644;17.984;2023-07-09T13:10:18;100125.20;;;36.60
69590;BMP180;56792;50.644;17.984;2023-07-09T13:12:50;100122.80;;;36.40
69590;BMP180;56792;50.644;17.984;2023-07-09T13:15:29;100121.60;;;36.20
69590;BMP180;56792;50.644;17.984;2023-07-09T13:18:04;100130.60;;;36.20
69590;BMP180;56792;50.644;17.984;2023-07-09T13:20:37;100130.00;;;36.30
69590;BMP180;56792;50.644;17.984;2023-07-09T13:23:11;100119.80;;;36.10
69590;BMP180;56792;50.644;17.984;2023-07-09T13:25:40;100126.80;;;36.00
69590;BMP180;56792;50.644;17.984;2023-07-09T13:28:16;100132.80;;;36.00
69590;BMP180;56792;50.644;17.984;2023-07-09T13:30:45;100132.80;;;36.00
69590;BMP180;56792;50.644;17.984;2023-07-09T13:33:14;100123.20;;;35.96
69590;BMP180;56792;50.644;17.984;2023-07-09T13:35:42;100118.60;;;35.90
69590;BMP180;56792;50.644;17.984;2023-07-09T13:38:15;100121.80;;;35.90
69590;BMP180;56792;50.644;17.984;2023-07-09T13:40:46;100123.60;;;36.00
69590;BMP180;56792;50.644;17.984;2023-07-09T13:43:18;100123.20;;;36.00
69590;BMP180;56792;50.644;17.984;2023-07-09T13:45:47;100116.20;;;35.90
69590;BMP180;56792;50.644;17.984;2023-07-09T13:48:20;100120.20;;;35.90
69590;BMP180;56792;50.644;17.984;2023-07-09T13:50:50;100112.80;;;35.78
69590;BMP180;56792;50.644;17.984;2023-07-09T13:53:23;100112.40;;;35.60
69590;BMP180;56792;50.644;17.984;2023-07-09T13:55:52;100112.00;;;35.46
69590;BMP180;56792;50.644;17.984;2023-07-09T13:58:23;100117.80;;;35.40
69590;BMP180;56792;50.644;17.984;2023-07-09T14:00:58;100115.00;;;35.40
69590;BMP180;56792;50.644;17.984;2023-07-09T14:03:31;100109.60;;;35.30
69590;BMP180;56792;50.644;17.984;2023-07-09T14:06:00;100117.40;;;35.30
69590;BMP180;56792;50.644;17.984;2023-07-09T14:08:28;100111.00;;;35.20